Time;durP1;ratioP1;P1;durP2;ratioP2;P2;SDS_P1;SDS_P2;PMS_P1;PMS_P2;Temp;Humidity;BMP_temperature;BMP_pressure;BME280_temperature;BME280_humidity;BME280_pressure;Samples;Min_cycle;Max_cycle;Signal;HPM_P1;HPM_P2
2022/06/19 00:00:16;;;;;;;0.10;0.10;;;;;;;;;;4811351;29;20041;-95
2022/06/19 00:02:43;;;;;;;0.10;0.10;;;;;;;;;;4826304;29;20049;-93
2022/06/19 00:05:10;;;;;;;0.10;0.10;;;;;;;;;;4829580;29;20132;-96
2022/06/19 00:07:44;;;;;;;2.92;0.40;;;;;;;;;;4845415;29;20128;-96
2022/06/19 00:10:48;;;;;;;0.10;0.10;;;;;;;;;;4831028;29;20052;-96
2022/06/19 00:13:23;;;;;;;0.10;0.10;;;;;;;;;;4833209;29;20033;-96
2022/06/19 00:15:59;;;;;;;0.10;0.10;;;;;;;;;;4833377;29;20043;-96
2022/06/19 00:18:26;;;;;;;0.10;0.10;;;;;;;;;;4831993;29;20033;-96
2022/06/19 00:20:53;;;;;;;0.10;0.10;;;;;;;;;;4832108;29;20574;-93
2022/06/19 00:23:23;;;;;;;0.10;0.10;;;;;;;;;;4830271;29;20496;-94
2022/06/19 00:25:50;;;;;;;0.10;0.10;;;;;;;;;;4831091;29;20042;-95
2022/06/19 00:28:16;;;;;;;0.10;0.10;;;;;;;;;;4830602;29;20053;-96
2022/06/19 00:30:47;;;;;;;0.10;0.10;;;;;;;;;;4831656;29;20136;-96
2022/06/19 00:33:16;;;;;;;0.10;0.10;;;;;;;;;;4835189;29;20054;-94
2022/06/19 00:35:46;;;;;;;0.87;0.50;;;;;;;;;;4840250;29;20056;-94
2022/06/19 00:38:18;;;;;;;0.10;0.10;;;;;;;;;;4839198;29;20287;-94
2022/06/19 00:40:51;;;;;;;0.10;0.10;;;;;;;;;;4839005;29;20037;-96
2022/06/19 00:43:37;;;;;;;0.10;0.10;;;;;;;;;;4841385;29;20113;-94
2022/06/19 00:46:23;;;;;;;0.10;0.10;;;;;;;;;;4841343;29;20230;-95
2022/06/19 01:33:09;;;;;;;0.10;0.10;;;;;;;;;;5727590;24;20065;-96
2022/06/19 01:35:41;;;;;;;0.93;0.35;;;;;;;;;;4869922;29;20053;-95
2022/06/19 01:38:14;;;;;;;0.10;0.10;;;;;;;;;;4866455;29;20112;-94
2022/06/19 01:40:40;;;;;;;0.10;0.10;;;;;;;;;;4850103;29;20045;-95
2022/06/19 01:43:19;;;;;;;0.10;0.10;;;;;;;;;;4850133;29;20132;-95
2022/06/19 01:46:04;;;;;;;0.10;0.10;;;;;;;;;;4854058;29;20109;-94
2022/06/19 01:52:23;;;;;;;0.10;0.10;;;;;;;;;;4874826;29;20052;-96
2022/06/19 01:55:15;;;;;;;0.35;0.35;;;;;;;;;;4860411;29;20124;-96
2022/06/19 01:57:46;;;;;;;0.10;0.10;;;;;;;;;;4864297;29;20049;-95
2022/06/19 02:00:19;;;;;;;0.10;0.10;;;;;;;;;;4865022;29;20056;-94
2022/06/19 02:03:22;;;;;;;0.10;0.10;;;;;;;;;;4851356;29;20049;-93
2022/06/19 02:05:50;;;;;;;0.10;0.10;;;;;;;;;;4839731;29;20053;-96
2022/06/19 02:08:24;;;;;;;0.10;0.10;;;;;;;;;;4866317;29;20064;-94
2022/06/19 02:10:50;;;;;;;0.10;0.10;;;;;;;;;;4850574;29;20049;-96
2022/06/19 02:13:17;;;;;;;0.10;0.10;;;;;;;;;;4849982;29;20125;-96
2022/06/19 02:15:44;;;;;;;0.10;0.10;;;;;;;;;;4849619;29;20048;-94
2022/06/19 02:18:13;;;;;;;0.10;0.10;;;;;;;;;;4849840;29;20056;-96
2022/06/19 02:20:54;;;;;;;0.10;0.10;;;;;;;;;;4851690;29;20512;-94
2022/06/19 02:23:31;;;;;;;0.10;0.10;;;;;;;;;;4851291;29;20084;-94
2022/06/19 02:25:58;;;;;;;0.10;0.10;;;;;;;;;;4836645;29;20477;-94
2022/06/19 02:28:26;;;;;;;0.10;0.10;;;;;;;;;;4853013;29;20068;-96
2022/06/19 02:31:20;;;;;;;0.10;0.10;;;;;;;;;;4856880;29;20041;-96
2022/06/19 02:34:01;;;;;;;;;;;;;;;;;;;;;
2022/06/19 02:37:23;;;;;;;;;;;;;;;;;;;;;
2022/06/19 02:40:11;;;;;;;0.10;0.10;;;;;;;;;;4866953;29;20069;-94
2022/06/19 02:42:38;;;;;;;0.10;0.10;;;;;;;;;;4850065;29;20111;-95
2022/06/19 02:45:06;;;;;;;0.10;0.10;;;;;;;;;;4849889;29;20506;-96
2022/06/19 03:03:48;;;;;;;0.20;0.20;;;;;;;;;;5169070;23;20147;-96
2022/06/19 03:06:46;;;;;;;0.30;0.30;;;;;;;;;;4877252;29;20049;-95
2022/06/19 03:09:12;;;;;;;2.08;0.52;;;;;;;;;;4865412;29;20053;-96
2022/06/19 03:11:39;;;;;;;0.38;0.38;;;;;;;;;;4849297;29;20044;-95
2022/06/19 03:14:05;;;;;;;0.10;0.10;;;;;;;;;;4849035;29;20084;-95
2022/06/19 03:19:23;;;;;;;0.10;0.10;;;;;;;;;;4856334;29;20105;-94
2022/06/19 03:21:52;;;;;;;0.10;0.10;;;;;;;;;;4848052;29;20399;-95
2022/06/19 03:24:18;;;;;;;0.10;0.10;;;;;;;;;;4834217;29;20040;-95
2022/06/19 03:26:44;;;;;;;0.10;0.10;;;;;;;;;;4848747;29;20052;-95
2022/06/19 03:29:10;;;;;;;0.10;0.10;;;;;;;;;;4849348;29;20405;-93
2022/06/19 03:31:36;;;;;;;0.10;0.10;;;;;;;;;;4848549;29;20122;-94
2022/06/19 03:34:02;;;;;;;0.10;0.10;;;;;;;;;;4863520;29;20068;-95
2022/06/19 03:36:29;;;;;;;0.10;0.10;;;;;;;;;;4848392;29;20052;-94
2022/06/19 03:38:55;;;;;;;0.10;0.10;;;;;;;;;;4848638;29;20060;-95
2022/06/19 03:41:24;;;;;;;0.10;0.10;;;;;;;;;;4848220;29;20049;-95
2022/06/19 03:43:51;;;;;;;0.10;0.10;;;;;;;;;;4848597;29;20216;-96
2022/06/19 03:46:18;;;;;;;0.10;0.10;;;;;;;;;;4848587;29;20045;-95
2022/06/19 03:48:45;;;;;;;0.10;0.10;;;;;;;;;;4848937;29;20041;-95
2022/06/19 03:51:12;;;;;;;0.10;0.10;;;;;;;;;;4849155;29;20036;-94
2022/06/19 03:53:38;;;;;;;0.10;0.10;;;;;;;;;;4848199;29;20084;-93
2022/06/19 03:56:05;;;;;;;0.10;0.10;;;;;;;;;;4848240;29;20052;-94
2022/06/19 03:58:46;;;;;;;0.10;0.10;;;;;;;;;;4847872;29;20048;-95
2022/06/19 04:01:15;;;;;;;0.10;0.10;;;;;;;;;;4849616;29;20037;-94
2022/06/19 04:03:41;;;;;;;0.10;0.10;;;;;;;;;;4847552;29;20057;-95
2022/06/19 04:06:10;;;;;;;0.10;0.10;;;;;;;;;;4848285;29;20056;-96
2022/06/19 04:08:40;;;;;;;0.10;0.10;;;;;;;;;;4848850;29;20045;-95
2022/06/19 04:11:06;;;;;;;0.10;0.10;;;;;;;;;;4848185;29;20049;-96
2022/06/19 04:13:38;;;;;;;0.10;0.10;;;;;;;;;;4848671;29;20041;-96
2022/06/19 04:16:04;;;;;;;0.13;0.13;;;;;;;;;;4847795;29;20132;-95
2022/06/19 04:22:07;;;;;;;0.10;0.10;;;;;;;;;;4844721;29;20056;-96
2022/06/19 04:24:33;;;;;;;0.10;0.10;;;;;;;;;;4845716;29;20046;-94
2022/06/19 04:27:24;;;;;;;;;;;;;;;;;;;;;
2022/06/19 04:30:17;;;;;;;0.10;0.10;;;;;;;;;;4819897;29;20091;-93
2022/06/19 04:32:43;;;;;;;0.10;0.10;;;;;;;;;;4811149;29;20141;-95
2022/06/19 04:35:09;;;;;;;0.10;0.10;;;;;;;;;;4830175;29;20053;-95
2022/06/19 04:37:43;;;;;;;0.10;0.10;;;;;;;;;;4831879;29;20038;-95
2022/06/19 04:40:12;;;;;;;0.10;0.10;;;;;;;;;;4856791;29;20124;-93
2022/06/19 04:42:42;;;;;;;0.10;0.10;;;;;;;;;;4857987;29;20041;-95
2022/06/19 04:45:14;;;;;;;0.17;0.17;;;;;;;;;;4859756;29;20115;-94
2022/06/19 04:47:40;;;;;;;0.10;0.10;;;;;;;;;;4855770;29;20105;-95
2022/06/19 04:50:07;;;;;;;0.10;0.10;;;;;;;;;;4852560;29;20053;-95
2022/06/19 04:52:39;;;;;;;0.10;0.10;;;;;;;;;;4868425;29;20047;-94
2022/06/19 04:55:05;;;;;;;0.10;0.10;;;;;;;;;;4851424;29;20049;-94
2022/06/19 04:57:31;;;;;;;0.10;0.10;;;;;;;;;;4851350;29;20045;-95
2022/06/19 04:59:57;;;;;;;0.10;0.10;;;;;;;;;;4851583;29;20037;-94
2022/06/19 05:02:23;;;;;;;0.10;0.10;;;;;;;;;;4865684;29;20053;-94
2022/06/19 05:04:50;;;;;;;0.10;0.10;;;;;;;;;;4851468;29;20057;-95
2022/06/19 05:07:16;;;;;;;0.10;0.10;;;;;;;;;;4852164;29;20041;-94
2022/06/19 05:09:44;;;;;;;0.10;0.10;;;;;;;;;;4851839;29;20041;-94
2022/06/19 05:12:17;;;;;;;0.10;0.10;;;;;;;;;;4851653;29;20422;-94
2022/06/19 05:18:30;;;;;;;2.35;0.20;;;;;;;;;;4863607;29;20114;-96
2022/06/19 05:34:23;;;;;;;0.10;0.10;;;;;;;;;;4853246;29;20045;-94
2022/06/19 05:37:14;;;;;;;0.10;0.10;;;;;;;;;;4852597;29;20054;-94
2022/06/19 05:39:43;;;;;;;0.10;0.10;;;;;;;;;;4813416;29;20054;-94
2022/06/19 05:42:11;;;;;;;0.20;0.20;;;;;;;;;;4801165;29;20148;-96
2022/06/19 05:45:13;;;;;;;0.10;0.10;;;;;;;;;;4817621;29;20056;-94
2022/06/19 05:51:13;;;;;;;0.10;0.10;;;;;;;;;;4830693;29;20054;-95
2022/06/19 05:56:32;;;;;;;0.10;0.10;;;;;;;;;;4811050;29;20058;-94
2022/06/19 05:59:01;;;;;;;0.10;0.10;;;;;;;;;;4781748;29;20050;-95
2022/06/19 06:01:28;;;;;;;0.57;0.43;;;;;;;;;;4779992;29;20051;-95
2022/06/19 06:03:55;;;;;;;0.10;0.10;;;;;;;;;;4780498;29;20050;-94
2022/06/19 06:06:25;;;;;;;0.10;0.10;;;;;;;;;;4798726;29;20050;-93
2022/06/19 06:08:53;;;;;;;0.10;0.10;;;;;;;;;;4810123;29;20061;-96
2022/06/19 06:11:24;;;;;;;0.10;0.10;;;;;;;;;;4795862;29;20530;-96
2022/06/19 06:13:50;;;;;;;0.10;0.10;;;;;;;;;;4779917;29;20044;-96
2022/06/19 06:16:18;;;;;;;0.10;0.10;;;;;;;;;;4779564;29;20089;-96
2022/06/19 06:18:44;;;;;;;0.10;0.10;;;;;;;;;;4794938;29;20042;-95
2022/06/19 06:21:13;;;;;;;0.10;0.10;;;;;;;;;;4778967;29;20038;-93
2022/06/19 06:23:40;;;;;;;0.10;0.10;;;;;;;;;;4778702;29;20076;-95
2022/06/19 06:26:10;;;;;;;0.10;0.10;;;;;;;;;;4794397;29;20054;-94
2022/06/19 06:28:39;;;;;;;0.10;0.10;;;;;;;;;;4826774;29;20060;-95
2022/06/19 06:31:05;;;;;;;0.10;0.10;;;;;;;;;;4798092;29;20529;-96
2022/06/19 06:33:31;;;;;;;0.10;0.10;;;;;;;;;;4798050;29;20059;-94
2022/06/19 06:35:57;;;;;;;0.10;0.10;;;;;;;;;;4798100;29;20078;-95
2022/06/19 06:38:23;;;;;;;0.10;0.10;;;;;;;;;;4798031;29;20065;-95
2022/06/19 06:40:55;;;;;;;0.10;0.10;;;;;;;;;;4800575;29;20101;-95
2022/06/19 06:43:21;;;;;;;0.10;0.10;;;;;;;;;;4893219;24;20053;-96
2022/06/19 06:45:48;;;;;;;0.10;0.10;;;;;;;;;;4797950;29;20098;-96
2022/06/19 06:55:23;;;;;;;0.10;0.10;;;;;;;;;;4764946;29;20071;-94
2022/06/19 06:58:21;;;;;;;;;;;;;;;;;;;;;
2022/06/19 07:01:28;;;;;;;0.10;0.10;;;;;;;;;;4759914;30;20079;-94
2022/06/19 07:03:59;;;;;;;0.10;0.10;;;;;;;;;;4782186;29;20053;-96
2022/06/19 07:06:34;;;;;;;0.10;0.10;;;;;;;;;;4779690;29;20050;-96
2022/06/19 07:09:12;;;;;;;0.10;0.10;;;;;;;;;;4808055;29;20089;-95
2022/06/19 07:12:22;;;;;;;0.20;0.20;;;;;;;;;;4795641;29;20114;-96
2022/06/19 07:23:27;;;;;;;0.10;0.10;;;;;;;;;;4843404;29;20058;-93
2022/06/19 07:25:53;;;;;;;0.10;0.10;;;;;;;;;;4811648;29;20100;-95
2022/06/19 07:28:20;;;;;;;0.10;0.10;;;;;;;;;;4812477;29;20050;-96
2022/06/19 07:30:47;;;;;;;0.10;0.10;;;;;;;;;;4813022;29;20064;-96
2022/06/19 07:33:13;;;;;;;0.10;0.10;;;;;;;;;;4813046;29;20053;-96
2022/06/19 07:35:39;;;;;;;0.10;0.10;;;;;;;;;;4811497;29;20057;-95
2022/06/19 07:38:09;;;;;;;0.13;0.13;;;;;;;;;;4814348;29;20371;-96
2022/06/19 07:40:45;;;;;;;0.10;0.10;;;;;;;;;;4827195;29;20091;-94
2022/06/19 07:43:11;;;;;;;0.10;0.10;;;;;;;;;;4812188;29;20053;-93
2022/06/19 07:45:37;;;;;;;0.10;0.10;;;;;;;;;;4826413;29;20061;-93
2022/06/19 07:51:03;;;;;;;0.10;0.10;;;;;;;;;;4815443;29;20125;-94
2022/06/19 08:02:32;;;;;;;0.10;0.10;;;;;;;;;;5388937;23;20374;-95
2022/06/19 08:04:58;;;;;;;0.10;0.10;;;;;;;;;;4793988;29;20496;-95
2022/06/19 08:07:24;;;;;;;0.10;0.10;;;;;;;;;;4778183;29;20050;-93
2022/06/19 08:09:51;;;;;;;0.10;0.10;;;;;;;;;;4784023;29;20103;-96
2022/06/19 08:12:17;;;;;;;0.10;0.10;;;;;;;;;;4808714;29;20501;-93
2022/06/19 08:14:44;;;;;;;0.10;0.10;;;;;;;;;;4778625;29;20074;-95
2022/06/19 08:17:10;;;;;;;0.10;0.10;;;;;;;;;;4794250;29;20043;-94
2022/06/19 08:19:36;;;;;;;0.10;0.10;;;;;;;;;;4779369;29;20123;-94
2022/06/19 08:22:02;;;;;;;0.10;0.10;;;;;;;;;;4779393;29;20488;-94
2022/06/19 08:24:28;;;;;;;0.10;0.10;;;;;;;;;;4778969;29;20502;-93
2022/06/19 08:27:05;;;;;;;0.10;0.10;;;;;;;;;;4779286;29;20141;-94
2022/06/19 08:29:32;;;;;;;0.10;0.10;;;;;;;;;;4779516;29;20063;-93
2022/06/19 08:31:58;;;;;;;0.10;0.10;;;;;;;;;;4779323;29;20051;-94
2022/06/19 08:34:26;;;;;;;0.10;0.10;;;;;;;;;;4778930;29;20043;-92
2022/06/19 08:36:52;;;;;;;0.10;0.10;;;;;;;;;;4778675;29;20043;-92
2022/06/19 08:39:18;;;;;;;0.10;0.10;;;;;;;;;;4792937;29;20115;-93
2022/06/19 08:41:47;;;;;;;0.10;0.10;;;;;;;;;;4778368;29;20047;-92
2022/06/19 08:44:22;;;;;;;0.10;0.10;;;;;;;;;;4793357;29;20027;-92
2022/06/19 08:47:02;;;;;;;0.10;0.10;;;;;;;;;;4789412;29;20403;-91
2022/06/19 08:49:47;;;;;;;0.10;0.10;;;;;;;;;;4774345;30;20047;-93
2022/06/19 08:52:32;;;;;;;0.10;0.10;;;;;;;;;;4776094;30;20492;-94
2022/06/19 08:55:01;;;;;;;0.10;0.10;;;;;;;;;;4775155;30;20049;-93
2022/06/19 08:57:57;;;;;;;0.10;0.10;;;;;;;;;;4775049;30;20055;-92
2022/06/19 09:00:31;;;;;;;0.10;0.10;;;;;;;;;;4774115;29;20047;-92
2022/06/19 09:03:00;;;;;;;0.10;0.10;;;;;;;;;;4760078;30;20111;-91
2022/06/19 09:05:46;;;;;;;0.10;0.10;;;;;;;;;;4785184;30;20056;-92
2022/06/19 09:08:31;;;;;;;0.10;0.10;;;;;;;;;;4789388;30;20047;-92
2022/06/19 09:11:06;;;;;;;0.10;0.10;;;;;;;;;;4805210;29;20087;-92
2022/06/19 09:13:32;;;;;;;0.10;0.10;;;;;;;;;;4789697;30;20049;-91
2022/06/19 09:16:10;;;;;;;0.10;0.10;;;;;;;;;;4790160;29;20047;-93
2022/06/19 09:19:03;;;;;;;0.10;0.10;;;;;;;;;;4775549;29;20582;-92
2022/06/19 09:21:32;;;;;;;0.10;0.10;;;;;;;;;;4789492;29;20051;-92
2022/06/19 09:24:02;;;;;;;0.10;0.10;;;;;;;;;;4789345;29;20079;-93
2022/06/19 09:26:31;;;;;;;0.10;0.10;;;;;;;;;;4789444;29;20047;-91
2022/06/19 09:28:58;;;;;;;0.10;0.10;;;;;;;;;;4774108;30;20062;-92
2022/06/19 09:31:38;;;;;;;0.10;0.10;;;;;;;;;;4774001;30;20075;-95
2022/06/19 09:34:25;;;;;;;0.10;0.10;;;;;;;;;;4774383;30;20134;-91
2022/06/19 09:36:52;;;;;;;0.10;0.10;;;;;;;;;;4759780;30;20043;-92
2022/06/19 09:39:20;;;;;;;0.10;0.10;;;;;;;;;;4774717;30;20051;-92
2022/06/19 09:41:54;;;;;;;0.10;0.10;;;;;;;;;;4774286;30;20100;-93
2022/06/19 09:44:38;;;;;;;0.10;0.10;;;;;;;;;;4775655;30;20090;-93
2022/06/19 09:47:04;;;;;;;0.10;0.10;;;;;;;;;;4775520;30;20137;-93
2022/06/19 09:49:31;;;;;;;0.10;0.10;;;;;;;;;;4789454;29;20047;-92
2022/06/19 09:52:14;;;;;;;0.10;0.10;;;;;;;;;;4774407;30;20142;-92
2022/06/19 09:54:40;;;;;;;;;;;;;;;;;;4774698;30;20043;-93
2022/06/19 09:57:06;;;;;;;0.10;0.10;;;;;;;;;;4774500;30;20041;-92
2022/06/19 09:59:35;;;;;;;0.10;0.10;;;;;;;;;;4789081;30;20055;-92
2022/06/19 10:02:05;;;;;;;0.10;0.10;;;;;;;;;;4774074;30;20103;-92
2022/06/19 10:04:38;;;;;;;0.10;0.10;;;;;;;;;;4773582;30;20051;-90
2022/06/19 10:07:08;;;;;;;0.10;0.10;;;;;;;;;;4773809;30;20569;-92
2022/06/19 10:09:35;;;;;;;0.10;0.10;;;;;;;;;;4774009;30;20058;-91
2022/06/19 10:12:01;;;;;;;0.10;0.10;;;;;;;;;;4773156;30;20047;-90
2022/06/19 10:14:41;;;;;;;0.10;0.10;;;;;;;;;;4772630;30;20057;-91
2022/06/19 10:17:25;;;;;;;0.10;0.10;;;;;;;;;;4772747;30;20139;-90
2022/06/19 10:19:58;;;;;;;0.10;0.10;;;;;;;;;;4791011;30;20054;-90
2022/06/19 10:22:27;;;;;;;0.10;0.10;;;;;;;;;;4787935;29;20096;-90
2022/06/19 10:25:18;;;;;;;0.10;0.10;;;;;;;;;;4787328;29;20051;-90
2022/06/19 10:27:55;;;;;;;0.10;0.10;;;;;;;;;;4772848;30;20051;-90
2022/06/19 10:30:27;;;;;;;0.10;0.10;;;;;;;;;;4787394;29;20174;-89
2022/06/19 10:32:57;;;;;;;0.20;0.20;;;;;;;;;;4772916;30;20039;-89
2022/06/19 10:35:29;;;;;;;0.10;0.10;;;;;;;;;;4787495;30;20570;-89
2022/06/19 10:38:02;;;;;;;0.10;0.10;;;;;;;;;;4801990;29;20047;-89
2022/06/19 10:40:33;;;;;;;0.10;0.10;;;;;;;;;;4772043;30;20091;-91
2022/06/19 10:43:10;;;;;;;0.10;0.10;;;;;;;;;;4802985;29;20504;-94
2022/06/19 10:45:38;;;;;;;0.10;0.10;;;;;;;;;;4772794;30;20441;-91
2022/06/19 10:48:04;;;;;;;0.10;0.10;;;;;;;;;;4772999;30;20100;-91
2022/06/19 10:50:36;;;;;;;0.10;0.10;;;;;;;;;;4787918;29;20047;-90
2022/06/19 10:53:05;;;;;;;0.10;0.10;;;;;;;;;;4773200;30;20047;-88
2022/06/19 10:55:34;;;;;;;0.10;0.10;;;;;;;;;;4802458;29;20048;-91
2022/06/19 10:58:03;;;;;;;0.10;0.10;;;;;;;;;;4772929;30;20446;-90
2022/06/19 11:00:29;;;;;;;0.10;0.10;;;;;;;;;;4787691;30;20039;-91
2022/06/19 11:05:45;;;;;;;0.10;0.10;;;;;;;;;;4803046;29;20102;-92
2022/06/19 11:08:11;;;;;;;0.10;0.10;;;;;;;;;;4772381;30;20051;-91
2022/06/19 11:10:42;;;;;;;0.10;0.10;;;;;;;;;;4772936;30;20147;-91
2022/06/19 11:13:08;;;;;;;0.10;0.10;;;;;;;;;;4772502;30;20084;-91
2022/06/19 11:15:35;;;;;;;0.13;0.13;;;;;;;;;;4772386;30;20043;-91
2022/06/19 11:18:07;;;;;;;0.10;0.10;;;;;;;;;;4787594;29;20501;-91
2022/06/19 11:20:33;;;;;;;0.10;0.10;;;;;;;;;;4787733;30;20485;-91
2022/06/19 11:23:18;;;;;;;0.10;0.10;;;;;;;;;;4772716;30;20043;-93
2022/06/19 11:25:45;;;;;;;0.10;0.10;;;;;;;;;;4790872;29;20078;-92
2022/06/19 11:28:11;;;;;;;0.10;0.10;;;;;;;;;;4776141;29;20046;-92
2022/06/19 11:30:40;;;;;;;0.10;0.10;;;;;;;;;;4790781;29;20468;-93
2022/06/19 11:33:10;;;;;;;0.10;0.10;;;;;;;;;;4791008;29;20054;-92
2022/06/19 11:35:41;;;;;;;0.10;0.10;;;;;;;;;;4776035;29;20455;-93
2022/06/19 11:38:07;;;;;;;0.10;0.10;;;;;;;;;;4775932;29;20051;-92
2022/06/19 11:40:35;;;;;;;0.10;0.10;;;;;;;;;;4790469;29;20042;-91
2022/06/19 11:43:01;;;;;;;0.10;0.10;;;;;;;;;;4774572;29;20046;-91
2022/06/19 11:45:31;;;;;;;0.10;0.10;;;;;;;;;;4775503;29;20050;-91
2022/06/19 11:47:56;;;;;;;0.10;0.10;;;;;;;;;;4790006;29;20593;-91
2022/06/19 11:50:37;;;;;;;0.10;0.10;;;;;;;;;;4789989;29;20138;-92
2022/06/19 11:53:03;;;;;;;0.10;0.10;;;;;;;;;;4791270;29;20060;-92
2022/06/19 11:55:33;;;;;;;0.10;0.10;;;;;;;;;;4789902;29;20039;-91
2022/06/19 11:58:00;;;;;;;0.10;0.10;;;;;;;;;;4790190;29;20054;-92
2022/06/19 12:00:29;;;;;;;0.10;0.10;;;;;;;;;;4789958;29;20384;-91
2022/06/19 12:02:56;;;;;;;0.10;0.10;;;;;;;;;;4775503;29;20058;-92
2022/06/19 12:05:30;;;;;;;0.10;0.10;;;;;;;;;;4775778;29;20091;-92
2022/06/19 12:07:57;;;;;;;0.10;0.10;;;;;;;;;;4775433;29;20047;-92
2022/06/19 12:10:27;;;;;;;0.10;0.10;;;;;;;;;;4775778;29;20402;-91
2022/06/19 12:12:54;;;;;;;0.10;0.10;;;;;;;;;;4790118;29;20132;-92
2022/06/19 12:15:28;;;;;;;0.10;0.10;;;;;;;;;;4774869;29;20050;-92
2022/06/19 12:18:01;;;;;;;0.10;0.10;;;;;;;;;;4775340;29;20070;-91
2022/06/19 12:20:28;;;;;;;0.10;0.10;;;;;;;;;;4776001;29;20047;-93
2022/06/19 12:23:02;;;;;;;0.10;0.10;;;;;;;;;;4794634;29;20047;-95
2022/06/19 12:25:31;;;;;;;0.10;0.10;;;;;;;;;;4780291;29;20046;-94
2022/06/19 12:28:01;;;;;;;0.10;0.10;;;;;;;;;;4793312;29;20550;-93
2022/06/19 12:30:28;;;;;;;0.10;0.10;;;;;;;;;;4777309;29;20127;-93
2022/06/19 12:32:54;;;;;;;0.10;0.10;;;;;;;;;;4775805;29;20507;-91
2022/06/19 12:35:25;;;;;;;0.10;0.10;;;;;;;;;;4774974;29;20046;-91
2022/06/19 12:37:51;;;;;;;0.10;0.10;;;;;;;;;;4790193;29;20093;-92
2022/06/19 12:40:18;;;;;;;0.10;0.10;;;;;;;;;;4775548;29;20082;-92
2022/06/19 12:42:48;;;;;;;0.10;0.10;;;;;;;;;;4774528;29;20066;-92
2022/06/19 12:45:17;;;;;;;0.10;0.10;;;;;;;;;;4789997;29;20042;-92
2022/06/19 12:47:49;;;;;;;0.10;0.10;;;;;;;;;;4790532;29;20046;-92
2022/06/19 12:50:21;;;;;;;0.10;0.10;;;;;;;;;;4789929;29;20042;-92
2022/06/19 12:52:47;;;;;;;0.10;0.10;;;;;;;;;;4789870;29;20384;-91
2022/06/19 12:55:26;;;;;;;0.10;0.10;;;;;;;;;;4791485;29;20061;-92
2022/06/19 12:58:11;;;;;;;0.10;0.10;;;;;;;;;;4778013;29;20083;-95
2022/06/19 13:00:38;;;;;;;0.10;0.10;;;;;;;;;;4794590;29;20091;-94
2022/06/19 13:03:10;;;;;;;0.10;0.10;;;;;;;;;;4792959;29;20059;-94
2022/06/19 13:05:44;;;;;;;0.10;0.10;;;;;;;;;;4792775;29;20107;-92
2022/06/19 13:08:16;;;;;;;0.10;0.10;;;;;;;;;;4792792;29;20081;-93
2022/06/19 13:10:58;;;;;;;0.10;0.10;;;;;;;;;;4793568;29;20467;-95
2022/06/19 13:13:59;;;;;;;0.10;0.10;;;;;;;;;;4795733;29;20100;-94
2022/06/19 13:16:50;;;;;;;0.10;0.10;;;;;;;;;;4808305;29;20456;-94
2022/06/19 13:19:33;;;;;;;0.10;0.10;;;;;;;;;;4795181;29;20053;-95
2022/06/19 13:22:32;;;;;;;0.10;0.10;;;;;;;;;;4794585;29;20049;-95
2022/06/19 13:25:23;;;;;;;0.10;0.10;;;;;;;;;;4795097;29;20074;-95
2022/06/19 13:28:10;;;;;;;0.10;0.10;;;;;;;;;;4808353;29;20078;-94
2022/06/19 13:30:42;;;;;;;0.10;0.10;;;;;;;;;;4805395;29;20104;-95
2022/06/19 13:33:25;;;;;;;0.10;0.10;;;;;;;;;;4815084;29;20094;-96
2022/06/19 13:35:56;;;;;;;0.10;0.10;;;;;;;;;;4798775;29;20057;-96
2022/06/19 13:38:26;;;;;;;0.10;0.10;;;;;;;;;;4798819;29;20063;-96
2022/06/19 13:40:58;;;;;;;0.10;0.10;;;;;;;;;;4799997;29;20061;-96
2022/06/19 13:43:37;;;;;;;0.20;0.20;;;;;;;;;;4797994;29;20043;-96
2022/06/19 13:46:17;;;;;;;0.10;0.10;;;;;;;;;;4797815;29;20133;-94
2022/06/19 13:48:47;;;;;;;0.10;0.10;;;;;;;;;;4796477;29;20138;-95
2022/06/19 13:51:22;;;;;;;0.10;0.10;;;;;;;;;;4814476;29;20098;-96
2022/06/19 13:53:52;;;;;;;0.10;0.10;;;;;;;;;;4802263;29;20116;-96
2022/06/19 13:56:41;;;;;;;0.10;0.10;;;;;;;;;;4798704;29;20105;-95
2022/06/19 13:59:25;;;;;;;0.10;0.10;;;;;;;;;;4796984;29;20051;-93
2022/06/19 14:01:52;;;;;;;0.10;0.10;;;;;;;;;;4792682;29;20146;-94
2022/06/19 14:07:25;;;;;;;0.10;0.10;;;;;;;;;;4807020;29;20063;-93
2022/06/19 14:10:08;;;;;;;0.10;0.10;;;;;;;;;;4794093;29;20053;-95
2022/06/19 14:12:39;;;;;;;0.10;0.10;;;;;;;;;;4792458;29;20396;-95
2022/06/19 14:15:30;;;;;;;0.10;0.10;;;;;;;;;;4806891;29;20054;-95
2022/06/19 14:18:13;;;;;;;0.10;0.10;;;;;;;;;;4767451;29;20773;-93
2022/06/19 14:20:57;;;;;;;0.10;0.10;;;;;;;;;;4792294;29;20082;-96
2022/06/19 14:24:02;;;;;;;0.10;0.10;;;;;;;;;;4791617;29;20111;-94
2022/06/19 14:26:47;;;;;;;0.10;0.10;;;;;;;;;;4791802;29;20113;-94
2022/06/19 14:29:51;;;;;;;0.10;0.10;;;;;;;;;;4807394;29;20062;-96
2022/06/19 14:32:22;;;;;;;0.10;0.10;;;;;;;;;;4780519;29;20054;-96
2022/06/19 14:34:49;;;;;;;0.10;0.10;;;;;;;;;;4792330;29;20348;-96
2022/06/19 14:37:35;;;;;;;0.10;0.10;;;;;;;;;;4794710;29;20133;-95
2022/06/19 14:40:06;;;;;;;0.10;0.10;;;;;;;;;;4782443;29;20058;-94
2022/06/19 14:42:54;;;;;;;0.20;0.20;;;;;;;;;;4793885;29;20360;-94
2022/06/19 14:45:22;;;;;;;0.10;0.10;;;;;;;;;;4808377;29;20451;-95
2022/06/19 14:47:52;;;;;;;0.10;0.10;;;;;;;;;;4793339;29;20046;-96
2022/06/19 14:50:37;;;;;;;0.10;0.10;;;;;;;;;;4795896;29;20111;-96
2022/06/19 14:53:13;;;;;;;0.10;0.10;;;;;;;;;;4796504;29;20055;-95
2022/06/19 14:55:39;;;;;;;0.10;0.10;;;;;;;;;;4792365;29;20108;-94
2022/06/19 14:58:11;;;;;;;0.10;0.10;;;;;;;;;;4794008;29;20051;-94
2022/06/19 15:00:41;;;;;;;0.10;0.10;;;;;;;;;;4792570;29;20047;-95
2022/06/19 15:03:27;;;;;;;0.10;0.10;;;;;;;;;;4793124;29;20066;-95
2022/06/19 15:05:54;;;;;;;0.10;0.10;;;;;;;;;;4793925;29;20066;-94
2022/06/19 15:08:22;;;;;;;0.10;0.10;;;;;;;;;;4795442;29;20070;-94
2022/06/19 15:10:56;;;;;;;0.10;0.10;;;;;;;;;;4796265;29;20051;-93
2022/06/19 15:13:38;;;;;;;0.10;0.10;;;;;;;;;;4795665;29;20047;-94
2022/06/19 15:16:22;;;;;;;0.10;0.10;;;;;;;;;;4797019;29;20046;-94
2022/06/19 15:18:52;;;;;;;0.10;0.10;;;;;;;;;;4815319;29;20055;-95
2022/06/19 15:21:31;;;;;;;0.10;0.10;;;;;;;;;;4793834;29;20070;-95
2022/06/19 15:23:58;;;;;;;0.10;0.10;;;;;;;;;;4791342;29;20046;-95
2022/06/19 15:26:30;;;;;;;0.10;0.10;;;;;;;;;;4793020;29;20518;-95
2022/06/19 15:29:26;;;;;;;0.10;0.10;;;;;;;;;;4980114;24;20057;-95
2022/06/19 15:34:47;;;;;;;0.10;0.10;;;;;;;;;;4895182;23;20052;-94
2022/06/19 15:37:23;;;;;;;0.10;0.10;;;;;;;;;;4880892;29;20053;-94
2022/06/19 15:40:22;;;;;;;0.10;0.10;;;;;;;;;;4852426;29;20045;-94
2022/06/19 15:43:26;;;;;;;0.10;0.10;;;;;;;;;;4817582;29;20140;-94
2022/06/19 15:45:54;;;;;;;0.10;0.10;;;;;;;;;;4843353;29;20045;-96
2022/06/19 15:48:51;;;;;;;0.10;0.10;;;;;;;;;;4859036;29;20056;-96
2022/06/19 15:51:20;;;;;;;0.10;0.10;;;;;;;;;;4855259;29;20227;-96
2022/06/19 15:53:51;;;;;;;0.10;0.10;;;;;;;;;;4855258;29;20049;-94
2022/06/19 15:56:34;;;;;;;0.10;0.10;;;;;;;;;;4873382;29;20049;-95
2022/06/19 15:59:04;;;;;;;0.10;0.10;;;;;;;;;;4861182;29;20045;-93
2022/06/19 16:01:35;;;;;;;0.10;0.10;;;;;;;;;;4838043;29;20501;-96
2022/06/19 16:04:06;;;;;;;0.10;0.10;;;;;;;;;;4838275;29;20053;-95
2022/06/19 16:06:48;;;;;;;0.10;0.10;;;;;;;;;;4831224;29;20053;-93
2022/06/19 16:09:19;;;;;;;0.10;0.10;;;;;;;;;;4846802;29;20497;-96
2022/06/19 16:11:58;;;;;;;0.10;0.10;;;;;;;;;;4847512;29;20105;-95
2022/06/19 16:14:26;;;;;;;0.10;0.10;;;;;;;;;;4847576;29;20045;-95
2022/06/19 16:16:59;;;;;;;0.10;0.10;;;;;;;;;;4833607;29;20045;-95
2022/06/19 16:20:01;;;;;;;;;;;;;;;;;;;;;
2022/06/19 16:23:41;;;;;;;0.10;0.10;;;;;;;;;;5042440;23;20118;-94
2022/06/19 16:29:39;;;;;;;0.10;0.10;;;;;;;;;;4831915;29;20048;-94
2022/06/19 16:32:08;;;;;;;0.10;0.10;;;;;;;;;;4852155;29;20037;-95
2022/06/19 16:44:02;;;;;;;0.10;0.10;;;;;;;;;;4851846;29;20051;-94
2022/06/19 16:45:54;;;;;;;0.13;0.13;;;;;;;;;;4853056;29;20045;-92
2022/06/19 16:48:20;;;;;;;0.10;0.10;;;;;;;;;;4851161;29;20078;-94
2022/06/19 16:50:48;;;;;;;0.10;0.10;;;;;;;;;;4851018;29;20041;-93
2022/06/19 16:53:16;;;;;;;0.17;0.17;;;;;;;;;;4851222;29;20037;-92
2022/06/19 16:55:43;;;;;;;0.10;0.10;;;;;;;;;;4851795;29;20052;-96
2022/06/19 16:58:15;;;;;;;0.10;0.10;;;;;;;;;;4851784;29;20037;-93
2022/06/19 17:00:46;;;;;;;0.10;0.10;;;;;;;;;;4851084;29;20397;-93
2022/06/19 17:03:31;;;;;;;0.10;0.10;;;;;;;;;;4851041;29;20041;-93
2022/06/19 17:06:00;;;;;;;0.20;0.20;;;;;;;;;;4866477;29;20059;-93
2022/06/19 17:08:42;;;;;;;0.10;0.10;;;;;;;;;;4851711;29;20227;-96
2022/06/19 17:11:10;;;;;;;0.17;0.17;;;;;;;;;;4854601;29;20052;-96
2022/06/19 17:13:36;;;;;;;0.10;0.10;;;;;;;;;;4854068;29;20132;-93
2022/06/19 17:16:02;;;;;;;0.10;0.10;;;;;;;;;;4851201;29;20092;-92
2022/06/19 17:18:37;;;;;;;0.10;0.10;;;;;;;;;;4851006;29;20470;-93
2022/06/19 17:21:11;;;;;;;0.10;0.10;;;;;;;;;;4851263;29;20047;-94
2022/06/19 17:23:37;;;;;;;0.10;0.10;;;;;;;;;;4850701;29;20061;-95
2022/06/19 17:26:14;;;;;;;0.17;0.17;;;;;;;;;;4850715;29;20442;-93
2022/06/19 17:28:46;;;;;;;0.10;0.10;;;;;;;;;;4850613;29;20137;-94
2022/06/19 17:31:12;;;;;;;0.10;0.10;;;;;;;;;;4851097;29;20055;-96
2022/06/19 17:34:00;;;;;;;0.10;0.10;;;;;;;;;;4851096;29;20065;-96
2022/06/19 17:36:31;;;;;;;0.10;0.10;;;;;;;;;;4853347;29;20405;-96
2022/06/19 17:38:59;;;;;;;0.10;0.10;;;;;;;;;;4854805;29;20044;-94
2022/06/19 17:41:45;;;;;;;0.10;0.10;;;;;;;;;;4849181;29;20037;-95
2022/06/19 17:44:55;;;;;;;0.10;0.10;;;;;;;;;;4850918;29;20048;-96
2022/06/19 17:47:33;;;;;;;0.10;0.10;;;;;;;;;;4809943;29;20062;-93